sensor_id;sensor_type;location;lat;lon;timestamp;temperature;humidity
30174;DHT22;16985;50.814;8.530;2023-07-13T00:00:41;17.90;80.10
30174;DHT22;16985;50.814;8.530;2023-07-13T00:03:22;18.00;80.30
30174;DHT22;16985;50.814;8.530;2023-07-13T00:05:57;18.00;80.40
30174;DHT22;16985;50.814;8.530;2023-07-13T00:08:24;18.00;80.50
30174;DHT22;16985;50.814;8.530;2023-07-13T00:10:52;17.90;80.80
30174;DHT22;16985;50.814;8.530;2023-07-13T00:13:20;17.90;81.00
30174;DHT22;16985;50.814;8.530;2023-07-13T00:15:45;17.90;81.00
30174;DHT22;16985;50.814;8.530;2023-07-13T00:18:12;17.90;80.80
30174;DHT22;16985;50.814;8.530;2023-07-13T00:20:37;17.90;81.00
30174;DHT22;16985;50.814;8.530;2023-07-13T00:23:03;17.90;81.10
30174;DHT22;16985;50.814;8.530;2023-07-13T00:25:29;17.90;81.20
30174;DHT22;16985;50.814;8.530;2023-07-13T00:27:55;17.90;81.50
30174;DHT22;16985;50.814;8.530;2023-07-13T00:30:21;17.90;81.70
30174;DHT22;16985;50.814;8.530;2023-07-13T00:32:47;17.80;81.70
30174;DHT22;16985;50.814;8.530;2023-07-13T00:35:14;17.80;81.90
30174;DHT22;16985;50.814;8.530;2023-07-13T00:37:41;17.80;82.00
30174;DHT22;16985;50.814;8.530;2023-07-13T00:40:08;17.80;82.20
30174;DHT22;16985;50.814;8.530;2023-07-13T00:42:36;17.80;82.30
30174;DHT22;16985;50.814;8.530;2023-07-13T00:45:04;17.80;82.10
30174;DHT22;16985;50.814;8.530;2023-07-13T00:47:31;17.70;82.30
30174;DHT22;16985;50.814;8.530;2023-07-13T00:49:57;17.70;82.40
30174;DHT22;16985;50.814;8.530;2023-07-13T00:52:35;17.70;82.80
30174;DHT22;16985;50.814;8.530;2023-07-13T00:55:03;17.60;82.50
30174;DHT22;16985;50.814;8.530;2023-07-13T00:57:29;17.60;82.30
30174;DHT22;16985;50.814;8.530;2023-07-13T00:59:58;17.60;82.70
30174;DHT22;16985;50.814;8.530;2023-07-13T01:02:33;17.60;82.50
30174;DHT22;16985;50.814;8.530;2023-07-13T01:04:59;17.50;82.20
30174;DHT22;16985;50.814;8.530;2023-07-13T01:07:27;17.50;82.00
30174;DHT22;16985;50.814;8.530;2023-07-13T01:09:56;17.50;82.10
30174;DHT22;16985;50.814;8.530;2023-07-13T01:12:22;17.40;82.20
30174;DHT22;16985;50.814;8.530;2023-07-13T01:14:48;17.40;82.50
30174;DHT22;16985;50.814;8.530;2023-07-13T01:17:14;17.40;82.50
30174;DHT22;16985;50.814;8.530;2023-07-13T01:19:45;17.40;82.90
30174;DHT22;16985;50.814;8.530;2023-07-13T01:22:14;17.40;83.10
30174;DHT22;16985;50.814;8.530;2023-07-13T01:24:43;17.30;83.40
30174;DHT22;16985;50.814;8.530;2023-07-13T01:27:22;17.30;83.50
30174;DHT22;16985;50.814;8.530;2023-07-13T01:29:51;17.30;83.80
30174;DHT22;16985;50.814;8.530;2023-07-13T01:32:23;17.20;84.00
30174;DHT22;16985;50.814;8.530;2023-07-13T01:34:52;17.20;83.90
30174;DHT22;16985;50.814;8.530;2023-07-13T01:37:36;17.20;83.70
30174;DHT22;16985;50.814;8.530;2023-07-13T01:40:05;17.10;83.70
30174;DHT22;16985;50.814;8.530;2023-07-13T01:42:31;17.10;84.60
30174;DHT22;16985;50.814;8.530;2023-07-13T01:44:57;17.10;83.90
30174;DHT22;16985;50.814;8.530;2023-07-13T01:47:23;17.00;83.70
30174;DHT22;16985;50.814;8.530;2023-07-13T01:49:51;17.00;83.90
30174;DHT22;16985;50.814;8.530;2023-07-13T01:52:17;17.00;83.80
30174;DHT22;16985;50.814;8.530;2023-07-13T01:54:43;17.00;83.90
30174;DHT22;16985;50.814;8.530;2023-07-13T01:57:09;16.90;84.00
30174;DHT22;16985;50.814;8.530;2023-07-13T01:59:34;16.90;84.30
30174;DHT22;16985;50.814;8.530;2023-07-13T02:02:00;16.80;84.20
30174;DHT22;16985;50.814;8.530;2023-07-13T02:04:42;16.80;84.30
30174;DHT22;16985;50.814;8.530;2023-07-13T02:07:08;16.80;84.50
30174;DHT22;16985;50.814;8.530;2023-07-13T02:09:50;16.70;84.50
30174;DHT22;16985;50.814;8.530;2023-07-13T02:12:15;16.70;84.70
30174;DHT22;16985;50.814;8.530;2023-07-13T02:14:41;16.60;84.90
30174;DHT22;16985;50.814;8.530;2023-07-13T02:17:17;16.50;85.00
30174;DHT22;16985;50.814;8.530;2023-07-13T02:19:42;16.50;85.30
30174;DHT22;16985;50.814;8.530;2023-07-13T02:22:08;16.40;85.30
30174;DHT22;16985;50.814;8.530;2023-07-13T02:24:34;16.40;85.40
30174;DHT22;16985;50.814;8.530;2023-07-13T02:27:00;16.30;85.50
30174;DHT22;16985;50.814;8.530;2023-07-13T02:29:26;16.30;85.80
30174;DHT22;16985;50.814;8.530;2023-07-13T02:31:51;16.20;85.90
30174;DHT22;16985;50.814;8.530;2023-07-13T02:34:17;16.20;85.90
30174;DHT22;16985;50.814;8.530;2023-07-13T02:36:43;16.10;86.00
30174;DHT22;16985;50.814;8.530;2023-07-13T02:39:11;16.10;86.10
30174;DHT22;16985;50.814;8.530;2023-07-13T02:41:38;16.00;86.30
30174;DHT22;16985;50.814;8.530;2023-07-13T02:44:04;16.00;86.50
30174;DHT22;16985;50.814;8.530;2023-07-13T02:46:34;15.90;86.70
30174;DHT22;16985;50.814;8.530;2023-07-13T02:49:01;15.90;86.90
30174;DHT22;16985;50.814;8.530;2023-07-13T02:51:28;15.80;87.00
30174;DHT22;16985;50.814;8.530;2023-07-13T02:53:54;15.80;87.20
30174;DHT22;16985;50.814;8.530;2023-07-13T02:56:26;15.80;87.50
30174;DHT22;16985;50.814;8.530;2023-07-13T02:58:53;15.70;87.70
30174;DHT22;16985;50.814;8.530;2023-07-13T03:01:20;15.60;87.70
30174;DHT22;16985;50.814;8.530;2023-07-13T03:03:48;15.60;87.70
30174;DHT22;16985;50.814;8.530;2023-07-13T03:06:14;15.60;87.90
30174;DHT22;16985;50.814;8.530;2023-07-13T03:08:46;15.50;88.00
30174;DHT22;16985;50.814;8.530;2023-07-13T03:11:15;15.50;88.20
30174;DHT22;16985;50.814;8.530;2023-07-13T03:13:46;15.50;88.40
30174;DHT22;16985;50.814;8.530;2023-07-13T03:16:13;15.40;88.40
30174;DHT22;16985;50.814;8.530;2023-07-13T03:18:42;15.40;88.60
30174;DHT22;16985;50.814;8.530;2023-07-13T03:21:10;15.40;88.80
30174;DHT22;16985;50.814;8.530;2023-07-13T03:23:38;15.40;89.00
30174;DHT22;16985;50.814;8.530;2023-07-13T03:26:08;15.40;89.10
30174;DHT22;16985;50.814;8.530;2023-07-13T03:28:36;15.30;89.30
30174;DHT22;16985;50.814;8.530;2023-07-13T03:31:18;15.20;89.50
30174;DHT22;16985;50.814;8.530;2023-07-13T03:33:45;15.20;89.60
30174;DHT22;16985;50.814;8.530;2023-07-13T03:36:19;15.20;89.90
30174;DHT22;16985;50.814;8.530;2023-07-13T03:38:51;15.10;90.00
30174;DHT22;16985;50.814;8.530;2023-07-13T03:41:23;15.10;90.20
30174;DHT22;16985;50.814;8.530;2023-07-13T03:44:07;15.10;90.10
30174;DHT22;16985;50.814;8.530;2023-07-13T03:46:33;15.10;90.20
30174;DHT22;16985;50.814;8.530;2023-07-13T03:48:59;15.10;90.30
30174;DHT22;16985;50.814;8.530;2023-07-13T03:51:25;15.00;90.30
30174;DHT22;16985;50.814;8.530;2023-07-13T03:53:51;15.10;90.40
30174;DHT22;16985;50.814;8.530;2023-07-13T03:56:19;15.00;90.50
30174;DHT22;16985;50.814;8.530;2023-07-13T03:58:47;15.00;90.60
30174;DHT22;16985;50.814;8.530;2023-07-13T04:01:19;15.00;90.70
30174;DHT22;16985;50.814;8.530;2023-07-13T04:04:00;15.00;90.80
30174;DHT22;16985;50.814;8.530;2023-07-13T04:06:29;15.00;90.90
30174;DHT22;16985;50.814;8.530;2023-07-13T04:08:57;15.00;91.10
30174;DHT22;16985;50.814;8.530;2023-07-13T04:11:27;15.00;91.20
30174;DHT22;16985;50.814;8.530;2023-07-13T04:13:54;14.90;91.30
30174;DHT22;16985;50.814;8.530;2023-07-13T04:16:20;14.90;91.50
30174;DHT22;16985;50.814;8.530;2023-07-13T04:18:47;14.90;91.70
30174;DHT22;16985;50.814;8.530;2023-07-13T04:21:30;14.90;91.70
30174;DHT22;16985;50.814;8.530;2023-07-13T04:23:56;14.90;91.80
30174;DHT22;16985;50.814;8.530;2023-07-13T04:26:22;14.90;91.80
30174;DHT22;16985;50.814;8.530;2023-07-13T04:28:49;14.90;91.80
30174;DHT22;16985;50.814;8.530;2023-07-13T04:31:16;14.90;91.80
30174;DHT22;16985;50.814;8.530;2023-07-13T04:33:42;14.90;91.60
30174;DHT22;16985;50.814;8.530;2023-07-13T04:36:08;15.00;91.50
30174;DHT22;16985;50.814;8.530;2023-07-13T04:38:35;15.00;91.40
30174;DHT22;16985;50.814;8.530;2023-07-13T04:41:04;15.00;91.30
30174;DHT22;16985;50.814;8.530;2023-07-13T04:43:32;15.00;91.40
30174;DHT22;16985;50.814;8.530;2023-07-13T04:46:04;15.00;91.30
30174;DHT22;16985;50.814;8.530;2023-07-13T04:48:32;15.10;91.20
30174;DHT22;16985;50.814;8.530;2023-07-13T04:51:14;15.10;91.10
30174;DHT22;16985;50.814;8.530;2023-07-13T04:53:39;15.10;91.00
30174;DHT22;16985;50.814;8.530;2023-07-13T04:56:05;15.10;90.90
30174;DHT22;16985;50.814;8.530;2023-07-13T04:58:31;15.10;90.90
30174;DHT22;16985;50.814;8.530;2023-07-13T05:01:03;15.20;91.10
30174;DHT22;16985;50.814;8.530;2023-07-13T05:03:30;15.20;91.00
30174;DHT22;16985;50.814;8.530;2023-07-13T05:06:01;15.30;90.70
30174;DHT22;16985;50.814;8.530;2023-07-13T05:08:27;15.30;90.70
30174;DHT22;16985;50.814;8.530;2023-07-13T05:10:53;15.40;90.60
30174;DHT22;16985;50.814;8.530;2023-07-13T05:13:19;15.40;90.40
30174;DHT22;16985;50.814;8.530;2023-07-13T05:15:47;15.50;90.40
30174;DHT22;16985;50.814;8.530;2023-07-13T05:18:13;15.50;90.40
30174;DHT22;16985;50.814;8.530;2023-07-13T05:20:39;15.60;90.30
30174;DHT22;16985;50.814;8.530;2023-07-13T05:23:05;15.60;90.20
30174;DHT22;16985;50.814;8.530;2023-07-13T05:25:31;15.60;90.20
30174;DHT22;16985;50.814;8.530;2023-07-13T05:27:56;15.70;90.20
30174;DHT22;16985;50.814;8.530;2023-07-13T05:30:22;15.70;90.10
30174;DHT22;16985;50.814;8.530;2023-07-13T05:32:48;15.80;90.00
30174;DHT22;16985;50.814;8.530;2023-07-13T05:35:14;15.80;89.70
30174;DHT22;16985;50.814;8.530;2023-07-13T05:37:40;15.80;89.70
30174;DHT22;16985;50.814;8.530;2023-07-13T05:40:06;15.80;89.60
30174;DHT22;16985;50.814;8.530;2023-07-13T05:42:32;15.90;89.80
30174;DHT22;16985;50.814;8.530;2023-07-13T05:44:58;16.00;89.70
30174;DHT22;16985;50.814;8.530;2023-07-13T05:47:24;15.90;89.40
30174;DHT22;16985;50.814;8.530;2023-07-13T05:49:49;16.00;89.40
30174;DHT22;16985;50.814;8.530;2023-07-13T05:52:15;16.00;89.30
30174;DHT22;16985;50.814;8.530;2023-07-13T05:54:41;16.10;89.20
30174;DHT22;16985;50.814;8.530;2023-07-13T05:57:07;16.10;89.10
30174;DHT22;16985;50.814;8.530;2023-07-13T05:59:32;16.10;89.00
30174;DHT22;16985;50.814;8.530;2023-07-13T06:01:58;16.20;89.00
30174;DHT22;16985;50.814;8.530;2023-07-13T06:04:24;16.20;88.90
30174;DHT22;16985;50.814;8.530;2023-07-13T06:06:50;16.20;88.80
30174;DHT22;16985;50.814;8.530;2023-07-13T06:09:16;16.30;88.60
30174;DHT22;16985;50.814;8.530;2023-07-13T06:11:42;16.30;88.50
30174;DHT22;16985;50.814;8.530;2023-07-13T06:14:16;16.30;88.40
30174;DHT22;16985;50.814;8.530;2023-07-13T06:16:42;16.40;88.20
30174;DHT22;16985;50.814;8.530;2023-07-13T06:19:08;16.40;88.00
30174;DHT22;16985;50.814;8.530;2023-07-13T06:21:33;16.50;87.70
30174;DHT22;16985;50.814;8.530;2023-07-13T06:23:59;16.50;87.30
30174;DHT22;16985;50.814;8.530;2023-07-13T06:26:25;16.50;87.20
30174;DHT22;16985;50.814;8.530;2023-07-13T06:28:51;16.50;87.00
30174;DHT22;16985;50.814;8.530;2023-07-13T06:31:17;16.60;87.00
30174;DHT22;16985;50.814;8.530;2023-07-13T06:33:44;16.60;86.80
30174;DHT22;16985;50.814;8.530;2023-07-13T06:36:10;16.60;86.40
30174;DHT22;16985;50.814;8.530;2023-07-13T06:38:37;16.70;86.40
30174;DHT22;16985;50.814;8.530;2023-07-13T06:41:04;16.70;86.30
30174;DHT22;16985;50.814;8.530;2023-07-13T06:43:30;16.70;86.10
30174;DHT22;16985;50.814;8.530;2023-07-13T06:46:12;16.80;86.10
30174;DHT22;16985;50.814;8.530;2023-07-13T06:48:38;16.80;86.00
30174;DHT22;16985;50.814;8.530;2023-07-13T06:51:04;16.90;85.80
30174;DHT22;16985;50.814;8.530;2023-07-13T06:53:29;16.90;85.70
30174;DHT22;16985;50.814;8.530;2023-07-13T06:55:55;17.00;85.70
30174;DHT22;16985;50.814;8.530;2023-07-13T06:58:21;17.00;85.50
30174;DHT22;16985;50.814;8.530;2023-07-13T07:00:51;17.00;85.30
30174;DHT22;16985;50.814;8.530;2023-07-13T07:03:17;17.20;85.40
30174;DHT22;16985;50.814;8.530;2023-07-13T07:05:43;17.20;85.30
30174;DHT22;16985;50.814;8.530;2023-07-13T07:08:09;17.10;85.20
30174;DHT22;16985;50.814;8.530;2023-07-13T07:10:35;17.30;85.10
30174;DHT22;16985;50.814;8.530;2023-07-13T07:13:02;17.30;85.00
30174;DHT22;16985;50.814;8.530;2023-07-13T07:15:28;17.40;85.20
30174;DHT22;16985;50.814;8.530;2023-07-13T07:17:55;17.50;85.20
30174;DHT22;16985;50.814;8.530;2023-07-13T07:20:21;17.50;85.30
30174;DHT22;16985;50.814;8.530;2023-07-13T07:23:02;17.60;85.20
30174;DHT22;16985;50.814;8.530;2023-07-13T07:25:28;17.70;84.70
30174;DHT22;16985;50.814;8.530;2023-07-13T07:27:57;17.80;84.40
30174;DHT22;16985;50.814;8.530;2023-07-13T07:30:24;17.80;84.10
30174;DHT22;16985;50.814;8.530;2023-07-13T07:32:50;17.90;83.90
30174;DHT22;16985;50.814;8.530;2023-07-13T07:35:16;17.90;83.70
30174;DHT22;16985;50.814;8.530;2023-07-13T07:37:57;18.00;83.40
30174;DHT22;16985;50.814;8.530;2023-07-13T07:40:23;18.00;82.70
30174;DHT22;16985;50.814;8.530;2023-07-13T07:42:48;18.10;82.40
30174;DHT22;16985;50.814;8.530;2023-07-13T07:45:15;18.20;82.30
30174;DHT22;16985;50.814;8.530;2023-07-13T07:47:40;18.40;82.10
30174;DHT22;16985;50.814;8.530;2023-07-13T07:50:06;18.40;81.80
30174;DHT22;16985;50.814;8.530;2023-07-13T07:52:32;18.50;81.20
30174;DHT22;16985;50.814;8.530;2023-07-13T07:54:58;18.60;80.80
30174;DHT22;16985;50.814;8.530;2023-07-13T07:57:24;18.60;80.40
30174;DHT22;16985;50.814;8.530;2023-07-13T07:59:58;18.70;80.10
30174;DHT22;16985;50.814;8.530;2023-07-13T08:02:25;18.80;79.70
30174;DHT22;16985;50.814;8.530;2023-07-13T08:04:51;18.90;79.70
30174;DHT22;16985;50.814;8.530;2023-07-13T08:07:26;19.00;79.70
30174;DHT22;16985;50.814;8.530;2023-07-13T08:09:55;19.10;79.60
30174;DHT22;16985;50.814;8.530;2023-07-13T08:12:37;19.20;79.30
30174;DHT22;16985;50.814;8.530;2023-07-13T08:15:05;19.30;79.20
30174;DHT22;16985;50.814;8.530;2023-07-13T08:17:32;19.40;79.00
30174;DHT22;16985;50.814;8.530;2023-07-13T08:19:58;19.50;78.70
30174;DHT22;16985;50.814;8.530;2023-07-13T08:22:23;19.60;78.40
30174;DHT22;16985;50.814;8.530;2023-07-13T08:24:49;19.70;78.20
30174;DHT22;16985;50.814;8.530;2023-07-13T08:27:22;19.70;77.90
30174;DHT22;16985;50.814;8.530;2023-07-13T08:29:49;19.90;77.30
30174;DHT22;16985;50.814;8.530;2023-07-13T08:32:16;19.90;77.00
30174;DHT22;16985;50.814;8.530;2023-07-13T08:34:43;19.90;76.80
30174;DHT22;16985;50.814;8.530;2023-07-13T08:37:09;20.00;76.50
30174;DHT22;16985;50.814;8.530;2023-07-13T08:39:35;20.10;76.10
30174;DHT22;16985;50.814;8.530;2023-07-13T08:42:15;20.20;76.40
30174;DHT22;16985;50.814;8.530;2023-07-13T08:45:17;20.20;75.50
30174;DHT22;16985;50.814;8.530;2023-07-13T08:53:54;20.60;74.20
30174;DHT22;16985;50.814;8.530;2023-07-13T08:56:28;20.70;74.00
30174;DHT22;16985;50.814;8.530;2023-07-13T08:59:02;20.70;73.50
30174;DHT22;16985;50.814;8.530;2023-07-13T09:04:49;21.00;73.10
30174;DHT22;16985;50.814;8.530;2023-07-13T09:10:02;21.20;72.00
30174;DHT22;16985;50.814;8.530;2023-07-13T09:15:44;21.30;70.40
30174;DHT22;16985;50.814;8.530;2023-07-13T09:18:12;21.40;69.70
30174;DHT22;16985;50.814;8.530;2023-07-13T09:20:46;21.50;69.10
30174;DHT22;16985;50.814;8.530;2023-07-13T09:23:21;21.60;68.90
30174;DHT22;16985;50.814;8.530;2023-07-13T09:25:53;21.70;68.90
30174;DHT22;16985;50.814;8.530;2023-07-13T09:28:30;21.70;68.60
30174;DHT22;16985;50.814;8.530;2023-07-13T09:31:04;21.80;68.20
30174;DHT22;16985;50.814;8.530;2023-07-13T09:33:32;21.80;68.10
30174;DHT22;16985;50.814;8.530;2023-07-13T09:36:01;21.90;68.10
30174;DHT22;16985;50.814;8.530;2023-07-13T09:38:29;22.00;67.90
30174;DHT22;16985;50.814;8.530;2023-07-13T09:44:28;22.30;68.00
30174;DHT22;16985;50.814;8.530;2023-07-13T09:47:02;22.40;68.00
30174;DHT22;16985;50.814;8.530;2023-07-13T09:49:33;22.60;67.10
30174;DHT22;16985;50.814;8.530;2023-07-13T09:52:11;22.60;66.30
30174;DHT22;16985;50.814;8.530;2023-07-13T09:54:37;22.80;66.40
30174;DHT22;16985;50.814;8.530;2023-07-13T09:57:14;22.90;66.30
30174;DHT22;16985;50.814;8.530;2023-07-13T09:59:47;23.00;65.60
30174;DHT22;16985;50.814;8.530;2023-07-13T10:02:26;23.10;65.20
30174;DHT22;16985;50.814;8.530;2023-07-13T10:05:07;23.20;64.70
30174;DHT22;16985;50.814;8.530;2023-07-13T10:07:43;23.20;64.30
30174;DHT22;16985;50.814;8.530;2023-07-13T10:10:18;23.30;64.10
30174;DHT22;16985;50.814;8.530;2023-07-13T10:12:47;23.30;64.10
30174;DHT22;16985;50.814;8.530;2023-07-13T10:15:19;23.30;63.60
30174;DHT22;16985;50.814;8.530;2023-07-13T10:17:47;23.30;62.80
30174;DHT22;16985;50.814;8.530;2023-07-13T10:20:14;23.30;63.10
30174;DHT22;16985;50.814;8.530;2023-07-13T10:25:26;23.50;63.50
30174;DHT22;16985;50.814;8.530;2023-07-13T10:27:58;23.60;63.30
30174;DHT22;16985;50.814;8.530;2023-07-13T10:30:35;23.60;63.30
30174;DHT22;16985;50.814;8.530;2023-07-13T10:33:10;23.60;61.90
30174;DHT22;16985;50.814;8.530;2023-07-13T10:35:39;23.60;60.90
30174;DHT22;16985;50.814;8.530;2023-07-13T10:38:13;23.50;61.10
30174;DHT22;16985;50.814;8.530;2023-07-13T10:40:43;23.50;61.60
30174;DHT22;16985;50.814;8.530;2023-07-13T10:43:24;23.50;61.60
30174;DHT22;16985;50.814;8.530;2023-07-13T10:45:53;23.50;61.60
30174;DHT22;16985;50.814;8.530;2023-07-13T10:48:22;23.40;62.40
30174;DHT22;16985;50.814;8.530;2023-07-13T10:50:51;23.40;61.50
30174;DHT22;16985;50.814;8.530;2023-07-13T10:53:22;23.40;61.10
30174;DHT22;16985;50.814;8.530;2023-07-13T11:04:29;23.50;61.50
30174;DHT22;16985;50.814;8.530;2023-07-13T11:07:17;23.60;62.10
30174;DHT22;16985;50.814;8.530;2023-07-13T11:09:53;23.60;62.10
30174;DHT22;16985;50.814;8.530;2023-07-13T11:17:34;23.60;61.40
30174;DHT22;16985;50.814;8.530;2023-07-13T11:22:47;23.60;60.40
30174;DHT22;16985;50.814;8.530;2023-07-13T11:33:22;23.50;59.70
30174;DHT22;16985;50.814;8.530;2023-07-13T11:38:35;23.50;59.30
30174;DHT22;16985;50.814;8.530;2023-07-13T11:41:22;23.60;59.60
30174;DHT22;16985;50.814;8.530;2023-07-13T11:43:53;23.50;59.70
30174;DHT22;16985;50.814;8.530;2023-07-13T11:46:24;23.50;58.90
30174;DHT22;16985;50.814;8.530;2023-07-13T11:48:52;23.60;58.90
30174;DHT22;16985;50.814;8.530;2023-07-13T11:51:31;23.50;59.20
30174;DHT22;16985;50.814;8.530;2023-07-13T11:54:01;23.60;59.50
30174;DHT22;16985;50.814;8.530;2023-07-13T11:56:29;23.60;59.50
30174;DHT22;16985;50.814;8.530;2023-07-13T11:58:57;23.50;58.80
30174;DHT22;16985;50.814;8.530;2023-07-13T12:01:27;23.50;59.20
30174;DHT22;16985;50.814;8.530;2023-07-13T12:04:00;23.50;60.10
30174;DHT22;16985;50.814;8.530;2023-07-13T12:06:33;23.40;58.50
30174;DHT22;16985;50.814;8.530;2023-07-13T12:09:08;23.40;58.30
30174;DHT22;16985;50.814;8.530;2023-07-13T12:11:40;23.30;58.50
30174;DHT22;16985;50.814;8.530;2023-07-13T12:14:18;23.40;59.00
30174;DHT22;16985;50.814;8.530;2023-07-13T12:16:46;23.30;58.80
30174;DHT22;16985;50.814;8.530;2023-07-13T12:19:24;23.40;59.10
30174;DHT22;16985;50.814;8.530;2023-07-13T12:21:54;23.30;59.20
30174;DHT22;16985;50.814;8.530;2023-07-13T12:24:22;23.30;59.30
30174;DHT22;16985;50.814;8.530;2023-07-13T12:29:20;23.30;59.50
30174;DHT22;16985;50.814;8.530;2023-07-13T12:31:48;23.30;59.60
30174;DHT22;16985;50.814;8.530;2023-07-13T12:34:21;23.10;59.70
30174;DHT22;16985;50.814;8.530;2023-07-13T12:36:56;23.20;60.70
30174;DHT22;16985;50.814;8.530;2023-07-13T12:42:21;23.20;60.70
30174;DHT22;16985;50.814;8.530;2023-07-13T12:45:24;23.20;61.60
30174;DHT22;16985;50.814;8.530;2023-07-13T12:48:06;23.30;61.80
30174;DHT22;16985;50.814;8.530;2023-07-13T12:50:49;23.30;61.50
30174;DHT22;16985;50.814;8.530;2023-07-13T12:53:28;23.30;60.80
30174;DHT22;16985;50.814;8.530;2023-07-13T12:55:58;23.40;61.10
30174;DHT22;16985;50.814;8.530;2023-07-13T12:58:37;23.50;61.20
30174;DHT22;16985;50.814;8.530;2023-07-13T13:01:08;23.50;61.10
30174;DHT22;16985;50.814;8.530;2023-07-13T13:03:37;23.50;60.60
30174;DHT22;16985;50.814;8.530;2023-07-13T13:06:28;23.50;60.50
30174;DHT22;16985;50.814;8.530;2023-07-13T13:08:58;23.50;60.10
30174;DHT22;16985;50.814;8.530;2023-07-13T13:11:27;23.50;60.00
30174;DHT22;16985;50.814;8.530;2023-07-13T13:13:54;23.50;59.60
30174;DHT22;16985;50.814;8.530;2023-07-13T13:16:31;23.50;59.50
30174;DHT22;16985;50.814;8.530;2023-07-13T13:21:45;23.50;59.30
30174;DHT22;16985;50.814;8.530;2023-07-13T13:24:13;23.40;59.50
30174;DHT22;16985;50.814;8.530;2023-07-13T13:26:40;23.40;59.60
30174;DHT22;16985;50.814;8.530;2023-07-13T13:29:16;23.50;59.40
30174;DHT22;16985;50.814;8.530;2023-07-13T13:31:43;23.50;58.80
30174;DHT22;16985;50.814;8.530;2023-07-13T13:34:18;23.50;58.60
30174;DHT22;16985;50.814;8.530;2023-07-13T13:36:49;23.50;59.30
30174;DHT22;16985;50.814;8.530;2023-07-13T13:42:00;23.50;60.00
30174;DHT22;16985;50.814;8.530;2023-07-13T13:44:26;23.40;60.40
30174;DHT22;16985;50.814;8.530;2023-07-13T13:46:52;23.40;61.10
30174;DHT22;16985;50.814;8.530;2023-07-13T13:49:21;23.30;61.40
30174;DHT22;16985;50.814;8.530;2023-07-13T13:51:51;23.40;61.90
30174;DHT22;16985;50.814;8.530;2023-07-13T13:54:19;23.30;62.20
30174;DHT22;16985;50.814;8.530;2023-07-13T13:56:48;23.30;62.20
30174;DHT22;16985;50.814;8.530;2023-07-13T13:59:15;23.30;61.70
30174;DHT22;16985;50.814;8.530;2023-07-13T14:01:43;23.20;61.30
30174;DHT22;16985;50.814;8.530;2023-07-13T14:04:16;23.10;61.30
30174;DHT22;16985;50.814;8.530;2023-07-13T14:06:43;23.10;61.40
30174;DHT22;16985;50.814;8.530;2023-07-13T14:09:16;23.10;61.70
30174;DHT22;16985;50.814;8.530;2023-07-13T14:11:44;23.00;61.80
30174;DHT22;16985;50.814;8.530;2023-07-13T14:14:21;23.00;61.50
30174;DHT22;16985;50.814;8.530;2023-07-13T14:16:49;23.00;61.70
30174;DHT22;16985;50.814;8.530;2023-07-13T14:19:20;23.10;61.90
30174;DHT22;16985;50.814;8.530;2023-07-13T14:21:46;23.00;61.80
30174;DHT22;16985;50.814;8.530;2023-07-13T14:24:13;23.10;61.40
30174;DHT22;16985;50.814;8.530;2023-07-13T14:26:48;23.10;61.30
30174;DHT22;16985;50.814;8.530;2023-07-13T14:29:16;23.10;61.40
30174;DHT22;16985;50.814;8.530;2023-07-13T14:31:57;23.10;61.50
30174;DHT22;16985;50.814;8.530;2023-07-13T14:34:23;23.10;62.30
30174;DHT22;16985;50.814;8.530;2023-07-13T14:36:49;23.10;61.50
30174;DHT22;16985;50.814;8.530;2023-07-13T14:39:21;23.10;60.70
30174;DHT22;16985;50.814;8.530;2023-07-13T14:41:54;23.10;60.60
30174;DHT22;16985;50.814;8.530;2023-07-13T14:44:25;23.10;59.70
30174;DHT22;16985;50.814;8.530;2023-07-13T14:46:55;23.10;59.90
30174;DHT22;16985;50.814;8.530;2023-07-13T14:49:30;23.10;59.90
30174;DHT22;16985;50.814;8.530;2023-07-13T14:52:01;23.10;60.10
30174;DHT22;16985;50.814;8.530;2023-07-13T14:54:29;23.00;60.10
30174;DHT22;16985;50.814;8.530;2023-07-13T14:56:55;23.10;60.20
30174;DHT22;16985;50.814;8.530;2023-07-13T14:59:21;23.10;60.00
30174;DHT22;16985;50.814;8.530;2023-07-13T15:01:48;23.20;60.00
30174;DHT22;16985;50.814;8.530;2023-07-13T15:04:15;23.20;59.60
30174;DHT22;16985;50.814;8.530;2023-07-13T15:06:56;23.20;59.70
30174;DHT22;16985;50.814;8.530;2023-07-13T15:09:28;23.20;59.30
30174;DHT22;16985;50.814;8.530;2023-07-13T15:11:55;23.20;59.40
30174;DHT22;16985;50.814;8.530;2023-07-13T15:14:22;23.30;59.20
30174;DHT22;16985;50.814;8.530;2023-07-13T15:16:50;23.30;59.40
30174;DHT22;16985;50.814;8.530;2023-07-13T15:19:18;23.30;59.30
30174;DHT22;16985;50.814;8.530;2023-07-13T15:21:46;23.40;58.90
30174;DHT22;16985;50.814;8.530;2023-07-13T15:24:12;23.40;59.00
30174;DHT22;16985;50.814;8.530;2023-07-13T15:26:38;23.50;58.90
30174;DHT22;16985;50.814;8.530;2023-07-13T15:29:04;23.50;59.00
30174;DHT22;16985;50.814;8.530;2023-07-13T15:31:32;23.50;58.60
30174;DHT22;16985;50.814;8.530;2023-07-13T15:33:59;23.50;58.40
30174;DHT22;16985;50.814;8.530;2023-07-13T15:36:25;23.50;58.50
30174;DHT22;16985;50.814;8.530;2023-07-13T15:38:53;23.60;57.40
30174;DHT22;16985;50.814;8.530;2023-07-13T15:41:26;23.50;57.10
30174;DHT22;16985;50.814;8.530;2023-07-13T15:43:56;23.50;56.90
30174;DHT22;16985;50.814;8.530;2023-07-13T15:46:25;23.50;56.50
30174;DHT22;16985;50.814;8.530;2023-07-13T15:48:53;23.50;56.50
30174;DHT22;16985;50.814;8.530;2023-07-13T15:51:26;23.40;56.60
30174;DHT22;16985;50.814;8.530;2023-07-13T15:53:59;23.50;56.90
30174;DHT22;16985;50.814;8.530;2023-07-13T15:56:34;23.50;56.70
30174;DHT22;16985;50.814;8.530;2023-07-13T15:59:01;23.50;56.50
30174;DHT22;16985;50.814;8.530;2023-07-13T16:01:29;23.50;56.70
30174;DHT22;16985;50.814;8.530;2023-07-13T16:03:56;23.50;56.50
30174;DHT22;16985;50.814;8.530;2023-07-13T16:06:32;23.60;56.80
30174;DHT22;16985;50.814;8.530;2023-07-13T16:09:03;23.60;57.30
30174;DHT22;16985;50.814;8.530;2023-07-13T16:11:36;23.60;57.00
30174;DHT22;16985;50.814;8.530;2023-07-13T16:14:04;23.60;57.10
30174;DHT22;16985;50.814;8.530;2023-07-13T16:16:33;23.60;57.10
30174;DHT22;16985;50.814;8.530;2023-07-13T16:19:04;23.60;57.20
30174;DHT22;16985;50.814;8.530;2023-07-13T16:21:35;23.60;57.20
30174;DHT22;16985;50.814;8.530;2023-07-13T16:24:15;23.60;57.30
30174;DHT22;16985;50.814;8.530;2023-07-13T16:26:43;23.60;57.20
30174;DHT22;16985;50.814;8.530;2023-07-13T16:29:15;23.60;57.00
30174;DHT22;16985;50.814;8.530;2023-07-13T16:31:58;23.50;56.70
30174;DHT22;16985;50.814;8.530;2023-07-13T16:34:27;23.50;56.70
30174;DHT22;16985;50.814;8.530;2023-07-13T16:37:20;23.40;57.10
30174;DHT22;16985;50.814;8.530;2023-07-13T16:39:57;23.40;57.40
30174;DHT22;16985;50.814;8.530;2023-07-13T16:42:24;23.30;57.60
30174;DHT22;16985;50.814;8.530;2023-07-13T16:44:50;23.30;58.10